Time;durP1;ratioP1;P1;durP2;ratioP2;P2;SDS_P1;SDS_P2;PMS_P1;PMS_P2;Temp;Humidity;BMP_temperature;BMP_pressure;BME280_temperature;BME280_humidity;BME280_pressure;Samples;Min_cycle;Max_cycle;Signal;HPM_P1;HPM_P2
2021/06/04 00:01:53;;;;;;;;;;;;;;;23.71;58.04;102015.69;5076969;28;20060;-83
2021/06/04 00:04:20;;;;;;;;;;;;;;;23.74;57.92;102012.84;5060676;28;19928;-83
2021/06/04 00:06:49;;;;;;;15.98;12.52;;;;;;;23.77;57.87;102010.88;5077108;28;19920;-83
2021/06/04 00:09:17;;;;;;;14.90;13.30;;;;;;;23.83;57.23;102007.00;5059726;28;20056;-83
2021/06/04 00:11:50;;;;;;;15.07;13.57;;;;;;;23.86;57.33;102009.41;5060406;28;20495;-83
2021/06/04 00:14:34;;;;;;;13.98;11.40;;;;;;;23.75;57.50;102007.50;5052352;28;20049;-83
2021/06/04 00:17:05;;;;;;;14.98;13.38;;;;;;;23.70;57.84;102004.31;5059741;28;20048;-83
2021/06/04 00:19:34;;;;;;;14.73;13.02;;;;;;;23.71;58.20;102011.25;5060326;28;20055;-83
2021/06/04 00:22:17;;;;;;;14.60;13.02;;;;;;;23.60;58.50;102011.09;5060050;28;20052;-83
2021/06/04 00:24:45;;;;;;;17.70;13.27;;;;;;;23.56;58.58;102005.19;5057224;28;20057;-83
2021/06/04 00:27:27;;;;;;;19.30;13.18;;;;;;;23.70;58.41;102014.00;5066349;28;20059;-83
2021/06/04 00:29:54;;;;;;;14.60;12.10;;;;;;;23.63;58.83;102001.25;5078993;28;20064;-83
2021/06/04 00:32:22;;;;;;;15.50;12.98;;;;;;;23.61;58.07;102002.25;5074673;28;20060;-83
2021/06/04 00:34:50;;;;;;;14.73;12.85;;;;;;;23.59;58.03;102001.53;5057858;28;20250;-84
2021/06/04 00:37:18;;;;;;;13.80;12.40;;;;;;;23.51;58.47;101998.53;5050480;28;20064;-83
2021/06/04 00:39:45;;;;;;;15.68;13.60;;;;;;;23.50;58.33;101997.69;5060648;28;20048;-83
2021/06/04 00:42:25;;;;;;;17.63;13.90;;;;;;;23.44;58.84;102007.78;5062786;28;20052;-83
2021/06/04 00:44:55;;;;;;;16.70;14.00;;;;;;;23.42;58.51;101999.97;5079655;28;20053;-83
2021/06/04 00:47:26;;;;;;;15.35;13.63;;;;;;;23.32;58.56;101999.72;5062403;28;20056;-83
2021/06/04 00:49:53;;;;;;;19.70;13.57;;;;;;;23.17;58.91;102005.09;5078882;28;20060;-83
2021/06/04 00:52:25;;;;;;;16.90;13.70;;;;;;;23.08;59.20;102002.13;5078965;28;20376;-83
2021/06/04 00:54:54;;;;;;;14.00;12.48;;;;;;;23.10;59.23;101996.78;5078878;28;20133;-83
2021/06/04 00:57:28;;;;;;;14.68;13.18;;;;;;;23.05;59.01;102002.31;5062428;28;20052;-83
2021/06/04 01:00:03;;;;;;;18.17;14.35;;;;;;;23.00;58.75;102001.75;5061070;28;20077;-83
2021/06/04 01:02:31;;;;;;;23.02;14.68;;;;;;;22.93;59.07;102002.22;5062667;28;20133;-83
2021/06/04 01:04:58;;;;;;;15.50;12.95;;;;;;;22.80;59.03;101996.88;5078272;28;20109;-83
2021/06/04 01:08:06;;;;;;;16.95;12.95;;;;;;;22.75;58.96;102001.56;5080151;28;20117;-83
2021/06/04 01:10:42;;;;;;;15.68;13.20;;;;;;;22.76;58.92;102003.25;5089127;28;20049;-82
2021/06/04 01:13:18;;;;;;;18.13;14.82;;;;;;;22.71;58.87;101998.25;5087450;28;20048;-83
2021/06/04 01:16:02;;;;;;;15.00;12.90;;;;;;;22.60;58.81;101998.09;5083310;28;20052;-83
2021/06/04 01:18:55;;;;;;;13.20;11.65;;;;;;;22.47;59.11;101997.13;5082569;28;20086;-83
2021/06/04 01:21:44;;;;;;;15.98;12.77;;;;;;;22.33;59.07;101997.94;5081550;28;20465;-83
2021/06/04 01:25:04;;;;;;;18.23;13.80;;;;;;;22.28;59.34;101994.75;5082387;28;20063;-83
2021/06/04 01:27:37;;;;;;;15.18;13.60;;;;;;;22.28;58.85;101998.22;5081528;28;20057;-82
2021/06/04 01:30:13;;;;;;;17.45;15.60;;;;;;;22.18;59.05;101998.84;5064133;28;20237;-82
2021/06/04 01:32:41;;;;;;;18.85;15.90;;;;;;;22.13;59.71;101988.63;5081347;28;20049;-82
2021/06/04 01:35:14;;;;;;;17.85;15.95;;;;;;;22.09;59.90;101993.19;5078484;28;20098;-82
2021/06/04 01:37:42;;;;;;;16.52;14.43;;;;;;;22.12;59.58;101996.59;5079639;28;20041;-82
2021/06/04 01:40:14;;;;;;;20.10;16.27;;;;;;;22.05;59.61;101991.66;5063087;28;20060;-82
2021/06/04 01:42:43;;;;;;;18.38;16.08;;;;;;;22.21;59.46;101996.06;5063427;28;20456;-81
2021/06/04 01:45:34;;;;;;;23.83;18.20;;;;;;;22.26;59.25;101996.63;5082654;28;20056;-83
2021/06/04 01:48:11;;;;;;;20.42;17.45;;;;;;;22.20;59.44;101994.34;5066821;28;20113;-81
2021/06/04 01:51:05;;;;;;;21.33;15.63;;;;;;;22.16;59.56;101996.34;5065544;28;20060;-82
2021/06/04 01:53:37;;;;;;;21.90;16.75;;;;;;;22.08;59.39;101993.28;5065840;28;20353;-81
2021/06/04 01:56:19;;;;;;;20.73;16.98;;;;;;;22.13;59.57;101993.03;5066234;28;20113;-81
2021/06/04 01:58:59;;;;;;;20.23;16.90;;;;;;;22.19;58.71;101996.13;5067081;28;20087;-81
2021/06/04 02:01:32;;;;;;;19.58;16.40;;;;;;;22.13;59.18;101996.50;5079683;28;20063;-81
2021/06/04 02:03:59;;;;;;;22.85;18.40;;;;;;;22.03;59.94;101995.31;5080036;28;20044;-82
2021/06/04 02:06:27;;;;;;;21.15;17.67;;;;;;;22.03;59.82;101987.44;5079740;28;20448;-81
2021/06/04 02:08:57;;;;;;;21.42;16.52;;;;;;;22.04;59.94;102000.47;5081033;28;20056;-82
2021/06/04 02:11:27;;;;;;;18.35;15.88;;;;;;;22.02;59.42;101993.63;5064052;28;20106;-82
2021/06/04 02:13:54;;;;;;;26.88;19.05;;;;;;;21.96;59.82;101996.59;5079165;28;20079;-82
2021/06/04 02:17:02;;;;;;;27.50;19.98;;;;;;;22.04;59.93;101989.97;5062797;28;20056;-81
2021/06/04 02:19:29;;;;;;;;;;;;;;;21.98;60.19;101994.75;5078893;28;20219;-82
2021/06/04 02:22:00;;;;;;;23.33;18.67;;;;;;;22.08;60.53;101998.50;5079161;28;19928;-82
2021/06/04 02:24:32;;;;;;;23.88;19.55;;;;;;;22.16;60.05;101998.13;5079199;28;20059;-81
2021/06/04 02:27:30;;;;;;;19.23;17.23;;;;;;;22.09;59.83;101994.94;5081929;28;20067;-81
2021/06/04 02:30:21;;;;;;;20.65;17.42;;;;;;;21.86;59.78;101998.91;5072885;28;20118;-81
2021/06/04 02:32:57;;;;;;;26.45;19.98;;;;;;;21.87;60.11;102000.63;5081529;28;20064;-81
2021/06/04 02:35:34;;;;;;;21.15;18.90;;;;;;;21.87;60.25;101995.38;5063386;28;20116;-81
2021/06/04 02:38:36;;;;;;;24.15;18.67;;;;;;;21.99;59.67;101993.81;5081334;28;20052;-82
2021/06/04 02:41:26;;;;;;;23.55;19.88;;;;;;;21.91;60.24;102003.88;5077788;28;20098;-81
2021/06/04 02:44:04;;;;;;;20.90;18.50;;;;;;;21.88;60.44;102007.53;5078377;28;20422;-81
2021/06/04 02:46:52;;;;;;;26.25;19.92;;;;;;;21.91;59.87;102001.25;5077280;28;20049;-81
2021/06/04 02:49:31;;;;;;;21.33;18.25;;;;;;;21.88;59.75;102004.91;5079114;28;20052;-80
2021/06/04 02:52:11;;;;;;;24.40;19.88;;;;;;;21.83;60.20;102009.56;5060870;28;20388;-81
2021/06/04 02:54:41;;;;;;;24.13;18.33;;;;;;;21.86;60.54;102004.13;5060958;28;20052;-81
2021/06/04 02:57:14;;;;;;;21.85;18.73;;;;;;;21.89;60.27;102001.34;5076618;28;20467;-80
2021/06/04 02:59:48;;;;;;;20.33;17.85;;;;;;;21.90;60.00;102002.19;5061123;28;20044;-81
2021/06/04 03:02:18;;;;;;;19.52;17.25;;;;;;;21.72;59.98;102010.19;5079749;28;20403;-82
2021/06/04 03:04:49;;;;;;;18.27;15.98;;;;;;;21.78;59.58;101996.72;5078315;28;20048;-81
2021/06/04 03:07:26;;;;;;;18.40;16.35;;;;;;;21.80;59.33;101999.25;5076079;28;20060;-81
2021/06/04 03:09:58;;;;;;;21.30;17.25;;;;;;;21.76;59.33;102008.22;5078770;28;20048;-81
2021/06/04 03:12:30;;;;;;;17.60;15.70;;;;;;;21.71;59.60;102002.41;5076681;28;20685;-81
2021/06/04 03:14:58;;;;;;;21.10;16.63;;;;;;;21.74;59.54;102004.84;5060789;28;20059;-81
2021/06/04 03:17:30;;;;;;;21.33;18.00;;;;;;;21.74;59.01;102007.47;5061745;28;20079;-81
2021/06/04 03:20:08;;;;;;;22.77;18.35;;;;;;;21.69;59.36;102006.91;5077378;28;20060;-81
2021/06/04 03:22:39;;;;;;;17.80;15.90;;;;;;;21.68;59.77;102011.28;5076589;28;20118;-80
2021/06/04 03:25:31;;;;;;;25.52;19.02;;;;;;;21.70;59.30;102011.19;5078914;28;20426;-81
2021/06/04 03:27:59;;;;;;;22.20;18.35;;;;;;;21.65;60.51;102011.47;5080465;28;20056;-83
2021/06/04 03:30:29;;;;;;;21.52;18.33;;;;;;;21.62;60.23;102005.53;5078867;28;20052;-83
2021/06/04 03:33:47;;;;;;;24.40;19.38;;;;;;;21.54;60.97;102009.44;5079852;28;20068;-83
2021/06/04 03:36:20;;;;;;;24.50;19.40;;;;;;;21.68;60.23;102005.22;5080360;28;20049;-82
2021/06/04 03:38:47;;;;;;;28.67;20.02;;;;;;;21.56;61.08;102006.72;5079825;28;20064;-83
2021/06/04 03:41:16;;;;;;;23.70;20.85;;;;;;;21.65;61.17;102015.84;5079718;28;20421;-84
2021/06/04 03:43:44;;;;;;;24.33;20.73;;;;;;;21.70;60.90;102008.56;5080920;28;20064;-83
2021/06/04 03:46:11;;;;;;;22.95;20.40;;;;;;;21.90;61.05;102004.81;5079753;28;20112;-83
2021/06/04 03:48:38;;;;;;;24.15;21.40;;;;;;;22.12;60.85;102005.31;5079278;28;20112;-82
2021/06/04 03:51:08;;;;;;;23.23;20.73;;;;;;;22.25;60.25;102006.28;5079552;28;20052;-83
2021/06/04 03:53:45;;;;;;;22.80;19.92;;;;;;;22.35;59.96;102009.19;5080516;28;20064;-83
2021/06/04 03:56:14;;;;;;;25.63;21.67;;;;;;;22.39;60.55;102012.47;5062054;28;20438;-83
2021/06/04 03:58:41;;;;;;;28.27;22.95;;;;;;;22.49;60.76;102009.19;5061736;28;20052;-82
2021/06/04 04:01:12;;;;;;;28.25;22.88;;;;;;;22.71;61.04;102005.31;5063440;28;20060;-82
2021/06/04 04:03:40;;;;;;;24.50;21.95;;;;;;;23.08;61.02;101996.88;5061682;28;20052;-82
2021/06/04 04:06:07;;;;;;;22.42;19.13;;;;;;;23.18;59.99;101996.28;5078384;28;20048;-82
2021/06/04 04:08:34;;;;;;;21.25;17.30;;;;;;;23.30;58.53;102006.03;5062298;28;20090;-82
2021/06/04 04:11:09;;;;;;;17.80;15.82;;;;;;;23.39;57.72;102000.19;5058740;28;20048;-81
2021/06/04 04:13:36;;;;;;;16.52;14.75;;;;;;;23.39;57.34;101995.75;5075018;28;20056;-82
2021/06/04 04:16:03;;;;;;;23.23;15.95;;;;;;;23.07;57.55;101995.16;5080136;28;20050;-81
2021/06/04 04:18:33;;;;;;;16.63;14.65;;;;;;;23.38;57.37;101998.50;5078137;28;20037;-82
2021/06/04 04:21:05;;;;;;;19.38;14.48;;;;;;;23.76;56.85;102006.53;5059524;28;20138;-82
2021/06/04 04:23:36;;;;;;;16.63;14.35;;;;;;;24.22;56.07;102005.28;5059509;28;20041;-82
2021/06/04 04:26:06;;;;;;;15.20;13.50;;;;;;;24.35;55.31;102007.00;5043479;28;20056;-82
2021/06/04 04:28:36;;;;;;;15.82;12.50;;;;;;;24.77;54.44;102007.63;5058319;28;20147;-82
2021/06/04 04:31:04;;;;;;;14.35;12.15;;;;;;;25.25;54.73;102004.31;5042091;28;20064;-83
2021/06/04 04:33:33;;;;;;;15.30;12.38;;;;;;;25.63;52.12;102007.63;5059888;28;20053;-81
2021/06/04 04:36:02;;;;;;;12.32;11.02;;;;;;;25.75;50.97;102002.41;5059548;28;20391;-82
2021/06/04 04:38:39;;;;;;;12.82;11.10;;;;;;;25.95;50.52;101996.50;5026907;28;20331;-83
2021/06/04 04:41:09;;;;;;;12.48;10.50;;;;;;;26.23;51.01;101997.06;5057406;28;20053;-81
2021/06/04 04:43:38;;;;;;;13.25;11.60;;;;;;;26.41;50.80;102004.41;5057782;28;20060;-82
2021/06/04 04:46:07;;;;;;;12.32;10.48;;;;;;;26.56;51.92;102007.69;5072011;28;20055;-82
2021/06/04 04:48:39;;;;;;;11.65;10.02;;;;;;;26.82;51.42;102003.00;5058112;28;20096;-82
2021/06/04 04:51:07;;;;;;;11.80;10.60;;;;;;;26.94;48.93;102006.50;5074829;28;20053;-82
2021/06/04 04:53:35;;;;;;;11.85;9.73;;;;;;;26.79;49.92;102007.69;5059088;28;20052;-82
2021/06/04 04:56:09;;;;;;;14.88;11.38;;;;;;;26.82;48.31;101996.88;5042606;28;20110;-82
2021/06/04 04:58:36;;;;;;;11.80;10.60;;;;;;;26.93;48.91;102000.34;5063063;28;20056;-82
2021/06/04 05:01:08;;;;;;;12.20;11.00;;;;;;;27.43;48.28;102008.72;5079390;28;20062;-82
2021/06/04 05:03:36;;;;;;;14.02;11.20;;;;;;;27.83;49.40;102009.91;5061754;28;20040;-83
2021/06/04 05:06:05;;;;;;;13.98;10.07;;;;;;;28.09;47.15;102002.44;5077444;28;20057;-83
2021/06/04 05:08:32;;;;;;;15.75;10.73;;;;;;;28.56;47.76;101997.56;5058736;28;20037;-83
2021/06/04 05:11:04;;;;;;;12.57;10.15;;;;;;;28.69;46.19;102003.47;5077049;28;20108;-84
2021/06/04 05:13:33;;;;;;;12.52;10.60;;;;;;;28.53;45.50;102003.97;5075786;28;20060;-83
2021/06/04 05:16:04;;;;;;;11.82;10.55;;;;;;;28.51;46.31;102015.69;5073861;28;20448;-84
2021/06/04 05:18:33;;;;;;;15.77;10.27;;;;;;;28.52;46.03;102020.00;5058793;28;20044;-84
2021/06/04 05:21:02;;;;;;;11.73;9.20;;;;;;;28.93;45.75;102021.69;5085740;28;20075;-84
2021/06/04 05:23:29;;;;;;;11.32;10.10;;;;;;;28.57;44.43;102021.28;5083117;28;20051;-84
2021/06/04 05:25:56;;;;;;;11.75;8.98;;;;;;;28.21;45.97;102020.78;5079444;28;20271;-83
2021/06/04 05:28:28;;;;;;;11.98;10.55;;;;;;;28.47;45.19;102025.69;5079102;28;20040;-84
2021/06/04 05:31:01;;;;;;;13.43;9.95;;;;;;;28.59;43.93;102023.78;5076166;28;20134;-84
2021/06/04 05:33:32;;;;;;;11.48;9.50;;;;;;;28.95;43.16;102019.78;5061110;28;20102;-85
2021/06/04 05:36:02;;;;;;;11.40;9.98;;;;;;;29.32;45.16;102027.13;5059809;28;20183;-85
2021/06/04 05:38:29;;;;;;;10.20;9.20;;;;;;;30.12;43.16;102029.53;5079161;28;20044;-85
2021/06/04 05:40:56;;;;;;;11.93;9.20;;;;;;;30.71;41.16;102025.78;5076647;28;20050;-85
2021/06/04 05:43:31;;;;;;;11.68;8.68;;;;;;;31.08;40.31;102024.88;5072314;28;20049;-85
2021/06/04 05:45:59;;;;;;;13.35;10.63;;;;;;;30.07;39.75;102031.78;5052430;28;20396;-84
2021/06/04 05:48:27;;;;;;;14.00;9.55;;;;;;;30.21;39.28;102026.06;5071247;28;20229;-85
2021/06/04 05:51:01;;;;;;;11.38;9.60;;;;;;;30.04;40.92;102028.56;5066436;28;20028;-85
2021/06/04 05:53:34;;;;;;;11.32;9.18;;;;;;;30.63;38.51;102022.97;5071304;28;20044;-84
2021/06/04 05:56:02;;;;;;;11.60;8.70;;;;;;;30.50;37.83;102022.47;5063519;28;20055;-84
2021/06/04 05:58:29;;;;;;;10.73;8.25;;;;;;;30.59;38.15;102021.59;5055158;28;20243;-84
2021/06/04 06:01:00;;;;;;;10.45;9.20;;;;;;;30.52;39.20;102023.19;5068260;28;20049;-84
2021/06/04 06:03:37;;;;;;;10.60;9.05;;;;;;;30.74;39.52;102022.00;5055362;28;20781;-84
2021/06/04 06:06:06;;;;;;;10.93;9.30;;;;;;;30.36;39.10;102033.59;5055183;28;20286;-85
2021/06/04 06:08:37;;;;;;;10.82;9.70;;;;;;;30.28;39.74;102028.97;5053719;28;20049;-83
2021/06/04 06:11:07;;;;;;;13.07;9.48;;;;;;;30.90;38.24;102016.91;5053384;28;20060;-84
2021/06/04 06:13:38;;;;;;;9.80;8.77;;;;;;;31.74;36.23;102013.94;5042851;28;20251;-84
2021/06/04 06:16:06;;;;;;;13.77;9.45;;;;;;;32.06;36.49;102017.84;5056555;28;20044;-83
2021/06/04 06:18:34;;;;;;;12.75;9.40;;;;;;;32.11;36.53;102015.56;5058346;28;20094;-84
2021/06/04 06:21:03;;;;;;;15.00;9.23;;;;;;;32.74;35.70;102017.94;5076104;28;20083;-84
2021/06/04 06:23:32;;;;;;;11.73;9.90;;;;;;;33.32;35.23;102032.31;5076766;28;20045;-83
2021/06/04 06:26:13;;;;;;;9.80;8.80;;;;;;;33.98;32.21;102035.94;5076789;28;20052;-83
2021/06/04 06:28:41;;;;;;;12.75;8.45;;;;;;;34.58;32.12;102041.66;5077911;28;20060;-84
2021/06/04 06:31:20;;;;;;;10.60;8.50;;;;;;;34.72;31.68;102039.28;5075192;28;20060;-83
2021/06/04 06:34:04;;;;;;;11.38;9.18;;;;;;;33.43;33.22;102049.88;5057691;28;20120;-84
2021/06/04 06:36:33;;;;;;;10.95;8.80;;;;;;;33.49;32.98;102054.59;5060342;28;20040;-83
2021/06/04 06:39:08;;;;;;;10.07;8.68;;;;;;;34.02;33.68;102046.13;5057326;28;20055;-83
2021/06/04 06:41:55;;;;;;;11.60;9.50;;;;;;;34.86;32.03;102046.56;5057884;28;20155;-83
2021/06/04 06:44:22;;;;;;;11.43;9.13;;;;;;;33.78;33.12;102044.25;5073949;28;20053;-83
2021/06/04 06:46:51;;;;;;;12.55;9.65;;;;;;;34.41;32.01;102049.88;5072045;28;20097;-84
2021/06/04 06:49:20;;;;;;;11.73;8.90;;;;;;;34.95;30.48;102053.59;5058951;28;20168;-84
2021/06/04 06:51:47;;;;;;;14.45;8.85;;;;;;;35.37;30.91;102044.28;5061619;28;20267;-84
2021/06/04 06:54:18;;;;;;;11.93;8.63;;;;;;;36.22;29.30;102054.88;5078486;28;20044;-83
2021/06/04 06:57:05;;;;;;;10.57;8.63;;;;;;;36.43;29.13;102045.28;5077789;28;20076;-83
2021/06/04 06:59:48;;;;;;;11.15;8.68;;;;;;;35.00;30.81;102053.91;5076874;28;20040;-84
2021/06/04 07:02:15;;;;;;;12.07;9.02;;;;;;;35.16;31.30;102057.50;5075631;28;20037;-83
2021/06/04 07:04:55;;;;;;;13.18;10.30;;;;;;;35.56;29.92;102059.09;5062525;28;20190;-84
2021/06/04 07:07:22;;;;;;;11.00;8.30;;;;;;;36.15;30.01;102067.31;5062480;28;20097;-83
2021/06/04 07:09:49;;;;;;;10.80;8.10;;;;;;;36.18;29.26;102064.28;5060989;28;20059;-85
2021/06/04 07:12:16;;;;;;;12.35;8.60;;;;;;;34.51;31.20;102077.31;5061642;28;20060;-84
2021/06/04 07:14:45;;;;;;;8.27;7.38;;;;;;;36.01;30.81;102060.09;5059954;28;20041;-84
2021/06/04 07:17:12;;;;;;;12.05;8.40;;;;;;;35.95;29.40;102058.97;5058692;28;20029;-84
2021/06/04 07:20:02;;;;;;;14.43;9.45;;;;;;;35.74;29.61;102067.66;5055381;28;20227;-84
2021/06/04 07:22:31;;;;;;;12.77;8.35;;;;;;;36.36;29.72;102067.47;5062108;28;20055;-84
2021/06/04 07:24:58;;;;;;;11.00;7.93;;;;;;;37.99;26.93;102063.56;5084138;28;20233;-84
2021/06/04 07:28:21;;;;;;;10.32;7.85;;;;;;;37.11;28.75;102062.91;5086376;28;20052;-83
2021/06/04 07:30:52;;;;;;;10.45;8.60;;;;;;;36.41;27.94;102072.28;5082187;28;20067;-84
2021/06/04 07:33:24;;;;;;;11.82;8.27;;;;;;;36.79;29.11;102070.31;5060714;28;20437;-83
2021/06/04 07:36:22;;;;;;;12.75;8.43;;;;;;;37.58;27.92;102070.44;5058727;28;20048;-83
2021/06/04 07:38:51;;;;;;;8.00;7.10;;;;;;;37.70;27.91;102070.75;5062807;28;20048;-83
2021/06/04 07:41:19;;;;;;;8.88;7.32;;;;;;;36.70;29.23;102067.91;5059073;28;20127;-84
2021/06/04 07:44:06;;;;;;;10.10;8.43;;;;;;;35.84;30.14;102076.28;5060449;28;20063;-84
2021/06/04 07:46:33;;;;;;;12.68;7.57;;;;;;;36.16;29.94;102073.50;5070276;28;20311;-84
2021/06/04 07:49:00;;;;;;;13.18;8.60;;;;;;;35.73;30.16;102078.56;5054618;28;20044;-83
2021/06/04 07:51:33;;;;;;;10.35;7.68;;;;;;;35.86;30.89;102078.78;5071936;28;20056;-83
2021/06/04 07:54:00;;;;;;;10.18;7.90;;;;;;;35.02;32.69;102078.63;5056015;28;20055;-84
2021/06/04 07:56:27;;;;;;;11.00;8.65;;;;;;;34.83;31.72;102081.69;5049242;28;20434;-83
2021/06/04 07:58:54;;;;;;;9.50;7.75;;;;;;;34.63;32.41;102083.94;5058841;28;20140;-83
2021/06/04 08:01:29;;;;;;;9.80;7.50;;;;;;;35.18;32.74;102083.06;5046936;28;20192;-83
2021/06/04 08:03:57;;;;;;;10.80;7.97;;;;;;;35.46;31.46;102074.56;5056149;28;20378;-83
2021/06/04 08:06:24;;;;;;;11.85;8.23;;;;;;;35.64;31.95;102083.16;5070066;28;20135;-83
2021/06/04 08:08:54;;;;;;;14.52;9.30;;;;;;;36.01;31.65;102079.69;5049205;28;20231;-83
2021/06/04 08:11:32;;;;;;;16.98;11.45;;;;;;;36.52;31.78;102084.41;5075926;28;20083;-83
2021/06/04 08:14:06;;;;;;;14.25;10.98;;;;;;;36.97;30.74;102080.69;5056120;28;20053;-83
2021/06/04 08:16:34;;;;;;;13.18;9.93;;;;;;;36.98;29.95;102078.84;5063533;28;20059;-83
2021/06/04 08:19:02;;;;;;;14.25;9.95;;;;;;;36.62;30.36;102079.59;5054773;28;20055;-82
2021/06/04 08:21:40;;;;;;;13.90;10.32;;;;;;;35.93;30.93;102077.06;5037293;28;20117;-83
2021/06/04 08:24:09;;;;;;;17.27;14.63;;;;;;;33.57;33.98;102086.63;5051718;28;20057;-82
2021/06/04 08:26:36;;;;;;;13.85;12.35;;;;;;;33.41;35.11;102079.38;5070908;28;20193;-82
2021/06/04 08:29:05;;;;;;;16.33;12.68;;;;;;;33.23;35.50;102084.84;5059829;28;20117;-82
2021/06/04 08:31:32;;;;;;;17.25;14.10;;;;;;;33.76;34.42;102080.13;5041094;28;20072;-83
2021/06/04 08:34:00;;;;;;;17.55;14.02;;;;;;;34.25;34.18;102080.97;5073092;28;20308;-82
2021/06/04 08:36:32;;;;;;;19.33;14.07;;;;;;;34.66;33.27;102085.44;5055196;28;20045;-83
2021/06/04 08:39:02;;;;;;;14.65;12.50;;;;;;;34.95;32.74;102083.03;5054811;28;20127;-82
2021/06/04 08:41:52;;;;;;;18.17;13.65;;;;;;;34.95;33.29;102077.69;5072876;28;20249;-82
2021/06/04 08:44:59;;;;;;;20.55;14.32;;;;;;;35.04;33.04;102078.44;5070082;28;20151;-82
2021/06/04 08:47:28;;;;;;;19.10;13.45;;;;;;;35.64;32.73;102076.97;5072809;28;20169;-82
2021/06/04 08:49:58;;;;;;;20.67;14.50;;;;;;;35.79;31.49;102076.00;5073427;28;20079;-83
2021/06/04 08:52:33;;;;;;;18.80;15.15;;;;;;;35.44;31.28;102077.41;5073484;28;20375;-82
2021/06/04 08:55:22;;;;;;;;;;;;;;;34.90;32.90;102085.34;5073897;28;20053;-82
2021/06/04 08:58:09;;;;;;;19.83;16.30;;;;;;;35.98;31.17;102080.06;5074336;28;19968;-83
2021/06/04 09:00:41;;;;;;;19.50;15.52;;;;;;;35.93;30.86;102077.06;5074437;28;20060;-82
2021/06/04 09:03:39;;;;;;;19.25;15.32;;;;;;;37.56;29.16;102080.53;5058573;28;20083;-83
2021/06/04 09:06:09;;;;;;;18.50;14.32;;;;;;;38.52;27.77;102080.09;5052047;28;20063;-82
2021/06/04 09:08:38;;;;;;;22.10;14.73;;;;;;;39.03;25.98;102082.41;5072670;28;20140;-82
2021/06/04 09:14:17;;;;;;;17.42;14.38;;;;;;;42.16;22.89;102074.00;5061414;28;20056;-84
2021/06/04 09:16:53;;;;;;;19.40;15.75;;;;;;;41.88;22.34;102066.41;5075531;28;20162;-84
2021/06/04 09:19:27;;;;;;;15.60;13.85;;;;;;;40.75;23.87;102068.94;5068868;28;20048;-82
2021/06/04 09:21:55;;;;;;;18.25;13.27;;;;;;;42.14;22.74;102073.41;5067726;28;20406;-83
2021/06/04 09:24:35;;;;;;;16.80;14.18;;;;;;;41.42;22.66;102069.44;5075935;28;20508;-84
2021/06/04 09:27:02;;;;;;;18.05;12.57;;;;;;;42.20;22.77;102079.03;5055168;28;20183;-83
2021/06/04 09:29:31;;;;;;;16.88;12.65;;;;;;;42.77;21.92;102076.94;5057507;28;20108;-84
2021/06/04 09:32:21;;;;;;;14.77;12.57;;;;;;;43.25;21.14;102070.66;5041865;28;20114;-84
2021/06/04 09:34:50;;;;;;;14.98;11.82;;;;;;;42.47;22.69;102074.16;5047161;28;20066;-83
2021/06/04 09:37:54;;;;;;;13.35;11.32;;;;;;;42.62;22.54;102074.63;5063018;28;20071;-84
2021/06/04 09:40:26;;;;;;;16.02;12.45;;;;;;;43.36;21.34;102072.56;5064036;28;20051;-83
2021/06/04 09:43:23;;;;;;;14.55;12.50;;;;;;;42.33;22.94;102079.72;5064229;28;20048;-83
2021/06/04 09:46:01;;;;;;;16.20;13.48;;;;;;;41.13;23.83;102079.78;5053928;28;20052;-83
2021/06/04 09:48:42;;;;;;;15.35;13.75;;;;;;;40.75;24.86;102082.44;5076596;28;20052;-83
2021/06/04 09:51:22;;;;;;;15.65;13.55;;;;;;;40.97;23.96;102079.47;5058483;28;20054;-83
2021/06/04 09:54:20;;;;;;;14.13;12.50;;;;;;;40.70;24.93;102073.31;5060671;28;20048;-83
2021/06/04 09:57:18;;;;;;;14.23;12.80;;;;;;;40.85;23.73;102076.56;5066675;28;20044;-83
2021/06/04 09:59:45;;;;;;;13.52;11.93;;;;;;;41.22;24.03;102071.44;5060090;28;20533;-83
2021/06/04 10:02:47;;;;;;;15.80;12.02;;;;;;;42.10;23.67;102079.50;5079669;28;20131;-84
2021/06/04 10:05:19;;;;;;;15.13;13.50;;;;;;;41.68;23.59;102073.84;5064668;28;20053;-83
2021/06/04 10:08:26;;;;;;;13.63;12.23;;;;;;;41.27;23.20;102066.19;5078196;28;20056;-83
2021/06/04 10:11:12;;;;;;;16.75;14.93;;;;;;;41.91;23.26;102071.34;5064354;28;20058;-85
2021/06/04 10:20:32;;;;;;;15.35;12.57;;;;;;;42.81;21.78;102060.00;5075515;28;20114;-83
2021/06/04 10:23:23;;;;;;;15.77;13.07;;;;;;;43.48;21.22;102059.84;5071884;28;20052;-83
2021/06/04 10:25:57;;;;;;;17.48;15.35;;;;;;;42.26;22.23;102056.47;5070384;28;20063;-83
2021/06/04 10:28:47;;;;;;;12.75;11.50;;;;;;;42.44;22.79;102062.69;5077707;28;20050;-84
2021/06/04 10:31:17;;;;;;;14.73;13.25;;;;;;;42.32;22.91;102063.69;5092166;28;20052;-84
2021/06/04 10:34:12;;;;;;;14.70;13.05;;;;;;;42.96;22.33;102067.69;5089174;28;20507;-84
2021/06/04 10:36:54;;;;;;;15.20;13.25;;;;;;;42.57;21.78;102067.13;5072648;28;20060;-84
2021/06/04 10:39:34;;;;;;;16.63;13.90;;;;;;;41.84;23.90;102067.91;5055363;28;20266;-83
2021/06/04 10:42:09;;;;;;;16.70;14.30;;;;;;;43.50;21.42;102065.06;5045354;28;20238;-85
2021/06/04 10:45:14;;;;;;;16.73;14.90;;;;;;;45.60;19.27;102057.44;5058139;28;20188;-83
2021/06/04 10:48:06;;;;;;;18.67;16.23;;;;;;;45.75;18.25;102063.09;5071006;28;20091;-83
2021/06/04 10:51:16;;;;;;;21.33;15.80;;;;;;;46.98;18.38;102068.25;5050376;28;20064;-83
2021/06/04 10:54:01;;;;;;;22.98;17.58;;;;;;;47.69;16.84;102060.69;5087585;28;20055;-84
2021/06/04 10:57:09;;;;;;;17.77;14.02;;;;;;;48.57;17.11;102051.81;5066194;28;20262;-85
2021/06/04 10:59:56;;;;;;;25.05;17.48;;;;;;;48.04;16.84;102051.06;5065661;28;20114;-84
2021/06/04 11:03:10;;;;;;;25.87;20.07;;;;;;;48.81;15.92;102054.03;5072875;28;20143;-84
2021/06/04 11:05:53;;;;;;;17.70;14.30;;;;;;;47.28;17.25;102059.53;5074166;28;20447;-84
2021/06/04 11:09:02;;;;;;;16.73;14.98;;;;;;;45.11;17.94;102051.72;5055616;28;20045;-84
2021/06/04 11:11:34;;;;;;;20.00;16.48;;;;;;;45.04;18.39;102059.19;4997995;28;20062;-84
2021/06/04 11:14:36;;;;;;;23.00;18.17;;;;;;;42.96;20.38;102051.44;5081771;28;20135;-84
2021/06/04 11:17:28;;;;;;;20.75;18.17;;;;;;;44.04;19.76;102050.34;5072736;28;20414;-83
2021/06/04 11:20:12;;;;;;;24.90;18.75;;;;;;;46.64;17.49;102043.88;5072354;28;20048;-82
2021/06/04 11:22:53;;;;;;;18.15;16.02;;;;;;;46.65;17.26;102047.44;5057015;28;20052;-85
2021/06/04 11:25:58;;;;;;;19.50;15.05;;;;;;;46.22;18.56;102038.22;5073014;28;20216;-83
2021/06/04 11:28:43;;;;;;;22.42;20.00;;;;;;;45.44;18.54;102037.34;5070180;28;20058;-83
2021/06/04 11:31:32;;;;;;;20.10;17.25;;;;;;;44.99;18.92;102037.31;5073425;28;20052;-83
2021/06/04 11:34:04;;;;;;;21.33;17.02;;;;;;;45.33;19.64;102033.59;5074148;28;20558;-83
2021/06/04 11:36:31;;;;;;;16.65;14.82;;;;;;;46.28;17.79;102028.22;5054114;28;20075;-83
2021/06/04 11:39:19;;;;;;;19.73;15.80;;;;;;;46.02;17.78;102030.56;5055098;28;20057;-84
2021/06/04 11:41:52;;;;;;;20.45;15.32;;;;;;;46.44;17.71;102024.56;5053816;28;20163;-84
2021/06/04 11:44:44;;;;;;;17.23;14.77;;;;;;;45.87;17.67;102033.09;5080874;28;20287;-85
2021/06/04 11:47:16;;;;;;;15.98;14.15;;;;;;;46.34;16.15;102030.72;5055040;28;20365;-84
2021/06/04 11:49:55;;;;;;;21.65;16.75;;;;;;;45.41;17.37;102021.50;5053614;28;20052;-84
2021/06/04 11:52:37;;;;;;;17.67;15.70;;;;;;;44.69;18.20;102027.56;5055251;28;20413;-83
2021/06/04 11:55:10;;;;;;;16.58;14.82;;;;;;;44.29;19.22;102022.13;5036724;28;20112;-83
2021/06/04 11:58:21;;;;;;;17.73;15.30;;;;;;;45.84;19.01;102028.97;5057082;28;20053;-84
2021/06/04 12:00:54;;;;;;;21.30;17.33;;;;;;;47.05;17.09;102010.75;5057007;28;20263;-84
2021/06/04 12:03:30;;;;;;;26.08;21.88;;;;;;;46.88;16.79;102019.88;5056409;28;20052;-84